Aviation Digital Data Service (ADDS)

Output produced by METARs form (0700 UTC 23 February 2019)
found at http://www.aviationweather.gov/metar/data/
 
UBBB 230630Z 15003KT 9999 BKN015 08/05 Q1023 R88/D NOSIG
TAF UBBB 230510Z 2306/2406 13006KT 8000 BKN015 TX09/2310Z TN03/2402Z 
     TEMPO 2306/2308 VRB04KT SCT007 
     TEMPO 2308/2314 19014KT SCT007 
     BECMG 2320/2322 35006KT 5000 BR BKN008 
     TEMPO 2322/2404 1200 BKN002
       
UBBG 230700Z 32004KT 280V360 1500 BR BKN005 03/02 Q1022 R12/CLRD// NOSIG
TAF UBBG 230502Z 2306/2406 VRB02KT 8000 FEW020 SCT060 TX11/2312Z TN00/2403Z 
     TEMPO 2306/2307 08006KT 1500 BR BKN004 
     TEMPO 2309/2313 29006KT